Time;durP1;ratioP1;P1;durP2;ratioP2;P2;SDS_P1;SDS_P2;PMS_P1;PMS_P2;Temp;Humidity;BMP_temperature;BMP_pressure;BME280_temperature;BME280_humidity;BME280_pressure;Samples;Min_cycle;Max_cycle;Signal;HPM_P1;HPM_P2
2022/11/11 00:01:21;;;;;;;12.82;8.18;;;11.50;72.70;;;;;;5065878;28;20488;-56
2022/11/11 00:03:47;;;;;;;9.60;6.38;;;11.50;72.70;;;;;;5066005;28;20051;-55
2022/11/11 00:06:14;;;;;;;12.25;8.43;;;11.50;73.00;;;;;;5067647;28;20098;-57
2022/11/11 00:08:40;;;;;;;10.70;7.30;;;11.50;73.00;;;;;;5063371;28;20087;-56
2022/11/11 00:11:11;;;;;;;10.38;7.38;;;11.50;73.00;;;;;;5067764;28;20387;-57
2022/11/11 00:13:38;;;;;;;10.05;7.30;;;11.40;73.10;;;;;;5072869;28;20067;-57
2022/11/11 00:16:11;;;;;;;8.55;6.22;;;11.40;73.20;;;;;;5062476;28;20041;-57
2022/11/11 00:27:04;;;;;;;12.75;8.77;;;11.50;73.10;;;;;;5055720;28;20442;-57
2022/11/11 00:29:30;;;;;;;13.55;9.88;;;11.40;73.20;;;;;;5066132;28;20024;-56
2022/11/11 00:35:51;;;;;;;12.45;8.90;;;11.40;73.40;;;;;;5061596;28;20532;-55
2022/11/11 00:37:25;;;;;;;12.68;8.55;;;11.30;73.50;;;;;;5062466;28;20051;-57
2022/11/11 00:39:51;;;;;;;12.48;8.75;;;11.30;73.70;;;;;;5061583;28;20029;-57
2022/11/11 00:42:16;;;;;;;10.98;8.43;;;11.30;73.90;;;;;;5065081;28;20756;-56
2022/11/11 00:44:42;;;;;;;13.40;9.85;;;11.30;74.10;;;;;;5065074;28;20032;-56
2022/11/11 00:52:37;;;;;;;12.15;8.43;;;11.20;74.60;;;;;;5063424;28;20036;-56
2022/11/11 00:55:03;;;;;;;11.32;8.43;;;11.20;74.80;;;;;;5073087;28;20032;-57
2022/11/11 00:57:28;;;;;;;11.73;7.90;;;11.20;75.00;;;;;;5065218;28;20028;-57
2022/11/11 00:59:54;;;;;;;10.98;7.10;;;11.20;75.80;;;;;;5074492;28;20048;-56
2022/11/11 01:02:19;;;;;;;11.07;8.02;;;11.20;75.20;;;;;;5072033;28;20044;-56
2022/11/11 01:04:45;;;;;;;10.85;7.90;;;11.20;75.30;;;;;;5068732;28;20021;-56
2022/11/11 01:07:11;;;;;;;11.65;7.72;;;11.20;75.40;;;;;;5061000;28;20041;-57
2022/11/11 01:09:36;;;;;;;9.88;6.95;;;11.20;75.50;;;;;;5068558;28;20522;-57
2022/11/11 01:12:02;;;;;;;10.55;6.93;;;11.20;75.60;;;;;;5066436;28;20036;-56
2022/11/11 01:14:29;;;;;;;10.65;7.53;;;11.20;75.60;;;;;;5063538;28;20033;-57
2022/11/11 01:16:55;;;;;;;11.20;7.85;;;11.20;75.80;;;;;;5059016;28;20025;-56
2022/11/11 01:19:20;;;;;;;8.73;6.72;;;11.20;75.80;;;;;;5065588;28;20039;-56
2022/11/11 01:21:46;;;;;;;11.27;7.88;;;11.20;75.90;;;;;;5064664;28;20415;-56
2022/11/11 01:24:11;;;;;;;10.23;7.53;;;11.20;75.90;;;;;;5066776;28;20040;-56
2022/11/11 01:26:37;;;;;;;8.45;6.80;;;11.20;76.10;;;;;;5071814;28;20049;-57
2022/11/11 01:29:03;;;;;;;9.85;6.97;;;11.20;76.20;;;;;;5073235;28;20028;-56
2022/11/11 01:31:28;;;;;;;7.68;5.97;;;11.20;76.30;;;;;;5059793;28;20033;-55
2022/11/11 01:33:54;;;;;;;8.20;6.20;;;11.20;76.40;;;;;;5069861;28;20059;-56
2022/11/11 01:36:25;;;;;;;9.73;6.53;;;11.20;76.40;;;;;;5057157;28;20040;-57
2022/11/11 01:38:54;;;;;;;7.32;5.43;;;11.30;76.40;;;;;;5071530;28;20058;-57
2022/11/11 01:41:32;;;;;;;9.85;6.45;;;11.30;76.20;;;;;;5060617;28;20058;-56
2022/11/11 01:44:10;;;;;;;9.38;7.00;;;11.40;76.20;;;;;;5060872;28;20092;-57
2022/11/11 01:46:51;;;;;;;8.75;6.45;;;11.40;76.10;;;;;;5059849;28;20119;-56
2022/11/11 01:49:44;;;;;;;8.65;6.13;;;11.40;76.00;;;;;;5051412;28;20457;-56
2022/11/11 01:52:37;;;;;;;10.50;7.18;;;11.40;76.00;;;;;;5064562;28;20414;-56
2022/11/11 02:43:14;;;;;;;12.25;7.97;;;11.00;73.80;;;;;;5070510;28;20398;-55
2022/11/11 02:45:39;;;;;;;10.25;6.90;;;11.60;77.10;;;;;;5060103;28;20021;-56
2022/11/11 02:48:05;;;;;;;9.98;6.47;;;11.60;77.00;;;;;;5057626;28;20025;-55
2022/11/11 02:50:30;;;;;;;9.07;6.00;;;11.60;77.00;;;;;;5061557;28;20025;-56
2022/11/11 02:52:56;;;;;;;10.13;6.20;;;11.60;77.10;;;;;;5057483;28;20046;-57
2022/11/11 02:55:22;;;;;;;10.50;6.43;;;11.60;77.20;;;;;;5063088;28;20055;-57
2022/11/11 02:57:47;;;;;;;9.15;5.88;;;11.60;77.20;;;;;;5063536;28;20033;-57
2022/11/11 03:00:13;;;;;;;8.90;6.05;;;11.60;77.20;;;;;;5062479;28;20025;-55
2022/11/11 03:02:39;;;;;;;9.82;5.82;;;11.60;77.20;;;;;;5062385;28;20070;-56
2022/11/11 03:05:05;;;;;;;8.95;5.95;;;11.60;77.20;;;;;;5059781;28;20061;-56
2022/11/11 03:07:30;;;;;;;10.05;6.88;;;11.70;77.30;;;;;;5059976;28;20072;-56
2022/11/11 03:09:56;;;;;;;9.85;6.38;;;11.70;77.30;;;;;;5060727;28;20048;-55
2022/11/11 03:12:22;;;;;;;10.75;6.72;;;11.70;77.30;;;;;;5060347;28;20480;-57
2022/11/11 03:14:47;;;;;;;9.20;6.07;;;11.70;77.40;;;;;;5061740;28;20040;-56
2022/11/11 03:21:03;;;;;;;9.30;5.70;;;11.60;77.60;;;;;;5061481;28;20051;-56
2022/11/11 03:22:42;;;;;;;10.38;6.32;;;11.60;77.70;;;;;;5056052;28;20296;-57
2022/11/11 03:27:52;;;;;;;8.32;5.72;;;11.70;77.60;;;;;;5062916;28;20032;-56
2022/11/11 03:30:18;;;;;;;9.80;7.13;;;11.70;77.60;;;;;;5062240;28;20045;-56
2022/11/11 03:32:44;;;;;;;10.45;6.43;;;11.70;77.60;;;;;;5057539;28;20087;-57
2022/11/11 03:35:09;;;;;;;10.02;6.22;;;11.80;77.50;;;;;;5062512;28;20025;-56
2022/11/11 03:40:19;;;;;;;10.10;6.57;;;11.80;77.40;;;;;;5059028;28;20488;-57
2022/11/11 03:42:45;;;;;;;12.63;7.10;;;11.80;77.20;;;;;;5056231;28;20053;-56
2022/11/11 03:45:10;;;;;;;12.35;7.22;;;11.80;77.30;;;;;;5034852;28;20456;-57
2022/11/11 03:47:36;;;;;;;10.63;6.72;;;11.80;77.40;;;;;;5042408;28;20037;-56
2022/11/11 03:50:01;;;;;;;11.05;7.03;;;11.80;77.50;;;;;;5045671;28;20030;-57
2022/11/11 03:52:27;;;;;;;10.80;8.25;;;11.80;77.50;;;;;;5050138;28;20105;-57
2022/11/11 03:54:53;;;;;;;11.40;7.00;;;11.80;77.40;;;;;;5049770;28;20401;-56
2022/11/11 03:57:30;;;;;;;9.15;6.30;;;11.80;77.30;;;;;;5048736;28;20044;-56
2022/11/11 03:59:56;;;;;;;10.07;6.43;;;11.80;77.30;;;;;;5036881;28;20520;-56
2022/11/11 04:10:35;;;;;;;12.18;7.65;;;11.80;77.40;;;;;;5050718;28;20566;-56
2022/11/11 04:23:58;;;;;;;9.90;6.60;;;11.80;77.30;;;;;;5047694;28;20495;-56
2022/11/11 04:26:24;;;;;;;13.38;7.43;;;11.80;77.20;;;;;;5048415;28;20061;-56
2022/11/11 04:29:51;;;;;;;11.02;7.25;;;11.80;77.20;;;;;;5048301;28;20042;-57
2022/11/11 04:34:28;;;;;;;11.90;7.18;;;11.80;77.20;;;;;;5046123;28;20083;-56
2022/11/11 04:36:54;;;;;;;11.57;7.57;;;11.80;77.80;;;;;;5044470;28;20033;-56
2022/11/11 04:42:04;;;;;;;10.82;7.28;;;11.80;77.40;;;;;;5046809;28;20099;-56
2022/11/11 04:47:14;;;;;;;12.93;8.88;;;11.80;77.40;;;;;;5035259;28;20093;-56
2022/11/11 04:49:39;;;;;;;10.98;7.95;;;11.80;77.40;;;;;;5047643;28;20050;-56
2022/11/11 04:57:33;;;;;;;11.45;7.60;;;11.80;77.70;;;;;;5034572;28;20032;-56
2022/11/11 04:59:59;;;;;;;12.05;7.50;;;11.80;77.40;;;;;;5049682;28;20026;-56
2022/11/11 05:05:08;;;;;;;13.68;8.23;;;11.90;77.50;;;;;;5050746;28;20048;-57
2022/11/11 05:10:18;;;;;;;11.48;7.93;;;11.90;77.50;;;;;;5049818;28;20040;-56
2022/11/11 05:12:46;;;;;;;11.48;7.57;;;11.90;78.00;;;;;;5048739;28;20068;-57
2022/11/11 05:25:24;;;;;;;16.73;10.65;;;11.80;77.50;;;;;;5047361;28;20093;-56
2022/11/11 05:26:12;;;;;;;13.73;8.43;;;11.90;77.50;;;;;;5039970;28;20030;-56
2022/11/11 05:28:38;;;;;;;13.50;8.70;;;11.80;77.70;;;;;;5046858;28;20024;-57
2022/11/11 05:31:04;;;;;;;13.05;8.00;;;11.80;77.80;;;;;;5045644;28;20033;-56
2022/11/11 05:33:30;;;;;;;13.60;7.65;;;11.80;78.00;;;;;;5043885;28;20030;-57
2022/11/11 05:35:55;;;;;;;12.48;7.93;;;11.80;78.10;;;;;;5040897;28;20021;-57
2022/11/11 05:38:21;;;;;;;13.63;8.85;;;11.80;78.10;;;;;;5039576;28;20041;-57
2022/11/11 05:40:46;;;;;;;15.98;8.82;;;11.80;78.10;;;;;;5039138;28;20505;-57
2022/11/11 05:43:12;;;;;;;15.75;9.57;;;11.70;78.30;;;;;;5043275;28;20068;-57
2022/11/11 05:45:40;;;;;;;12.77;7.78;;;11.80;78.40;;;;;;5039105;28;20362;-57
2022/11/11 05:48:06;;;;;;;16.00;9.18;;;11.80;78.50;;;;;;5029535;28;20049;-56
2022/11/11 05:50:32;;;;;;;13.02;8.52;;;11.90;78.50;;;;;;5041945;28;20025;-56
2022/11/11 05:52:57;;;;;;;11.40;8.25;;;11.90;78.40;;;;;;5039883;28;20064;-57
2022/11/11 05:55:23;;;;;;;13.13;8.20;;;11.90;78.60;;;;;;5041057;28;20028;-56
2022/11/11 05:57:48;;;;;;;13.65;8.65;;;11.80;78.60;;;;;;5033641;28;20029;-56
2022/11/11 06:00:18;;;;;;;14.70;8.63;;;11.80;78.70;;;;;;5037983;28;20100;-56
2022/11/11 06:02:43;;;;;;;11.48;7.32;;;11.90;78.70;;;;;;5024567;28;20033;-56
2022/11/11 06:05:09;;;;;;;13.63;8.38;;;11.90;78.70;;;;;;5040705;28;20048;-55
2022/11/11 06:07:41;;;;;;;14.73;9.48;;;11.90;78.60;;;;;;5042693;28;20048;-56
2022/11/11 06:13:00;;;;;;;16.75;9.05;;;11.90;78.60;;;;;;5038879;28;20087;-56
2022/11/11 06:15:27;;;;;;;13.82;8.70;;;11.90;78.60;;;;;;5038934;28;20062;-57
2022/11/11 06:17:53;;;;;;;12.98;8.23;;;11.90;78.90;;;;;;5041800;28;20025;-56
2022/11/11 06:20:19;;;;;;;14.23;8.25;;;11.80;79.00;;;;;;5042196;28;20033;-56
2022/11/11 06:22:57;;;;;;;15.10;9.40;;;11.80;79.10;;;;;;5044324;28;20044;-56
2022/11/11 06:28:16;;;;;;;14.65;9.25;;;11.80;79.20;;;;;;5039811;28;20109;-56
2022/11/11 06:30:42;;;;;;;15.02;8.85;;;11.90;79.40;;;;;;5038111;28;20026;-57
2022/11/11 06:33:08;;;;;;;14.20;8.70;;;11.80;79.30;;;;;;5039472;28;20048;-57
2022/11/11 06:35:38;;;;;;;14.35;8.30;;;11.80;79.40;;;;;;5041496;28;20026;-56
2022/11/11 06:38:06;;;;;;;15.80;8.45;;;11.80;79.50;;;;;;5037727;28;20092;-55
2022/11/11 06:40:32;;;;;;;11.95;7.50;;;11.80;79.30;;;;;;5033609;28;20070;-56
2022/11/11 06:43:01;;;;;;;12.10;7.30;;;11.80;79.50;;;;;;5037548;28;20049;-57
2022/11/11 06:45:28;;;;;;;12.52;7.30;;;11.80;79.60;;;;;;5037888;28;20025;-57
2022/11/11 06:47:53;;;;;;;12.05;7.78;;;11.90;79.80;;;;;;5039200;28;20063;-56
2022/11/11 06:50:19;;;;;;;11.88;7.45;;;11.90;79.70;;;;;;5030260;28;20475;-57
2022/11/11 06:52:45;;;;;;;10.55;7.65;;;12.00;79.70;;;;;;5041558;28;20065;-57
2022/11/11 06:55:11;;;;;;;13.35;7.68;;;12.00;79.60;;;;;;5036855;28;20017;-57
2022/11/11 06:57:37;;;;;;;12.35;7.53;;;12.00;79.60;;;;;;5038232;28;20018;-57
2022/11/11 07:00:05;;;;;;;10.82;7.25;;;12.10;79.70;;;;;;5039959;28;20045;-56
2022/11/11 07:02:31;;;;;;;11.93;7.07;;;12.10;79.70;;;;;;5028521;28;20037;-56
2022/11/11 07:04:56;;;;;;;11.95;7.53;;;12.20;79.80;;;;;;5040457;28;20558;-56
2022/11/11 07:07:22;;;;;;;15.93;10.75;;;12.20;80.40;;;;;;5035899;28;20025;-57
2022/11/11 07:09:48;;;;;;;12.18;8.60;;;12.30;79.80;;;;;;5036478;28;20524;-56
2022/11/11 07:12:14;;;;;;;14.43;9.15;;;12.30;79.70;;;;;;5037770;28;20036;-56
2022/11/11 07:14:39;;;;;;;12.02;8.10;;;12.30;79.60;;;;;;5039558;28;20425;-56
2022/11/11 07:17:05;;;;;;;12.60;8.18;;;12.30;80.40;;;;;;5034660;28;20052;-56
2022/11/11 07:19:30;;;;;;;14.52;9.25;;;12.30;79.80;;;;;;5031859;28;20029;-57
2022/11/11 07:21:56;;;;;;;13.23;8.35;;;12.30;79.80;;;;;;5034263;28;20041;-57
2022/11/11 07:24:22;;;;;;;13.55;8.48;;;12.30;79.60;;;;;;5031912;28;20068;-57
2022/11/11 07:26:47;;;;;;;13.23;8.60;;;12.30;79.50;;;;;;5032451;28;20053;-57
2022/11/11 07:29:14;;;;;;;11.25;7.80;;;12.40;79.50;;;;;;5036064;28;20424;-57
2022/11/11 07:31:40;;;;;;;12.32;7.47;;;12.40;79.50;;;;;;5030138;28;20030;-57
2022/11/11 07:34:06;;;;;;;12.50;8.60;;;12.40;79.50;;;;;;5035865;28;20044;-57
2022/11/11 07:36:32;;;;;;;14.43;8.13;;;12.40;79.50;;;;;;5029340;28;20504;-57
2022/11/11 07:38:58;;;;;;;13.98;9.27;;;12.40;79.40;;;;;;5030602;28;20026;-57
2022/11/11 07:41:24;;;;;;;14.18;9.48;;;12.40;79.40;;;;;;5031863;28;20512;-56
2022/11/11 07:43:49;;;;;;;14.23;9.45;;;12.40;79.40;;;;;;5032357;28;20029;-56
2022/11/11 07:46:15;;;;;;;16.73;10.88;;;12.40;79.50;;;;;;5029787;28;20037;-56
2022/11/11 07:48:41;;;;;;;14.30;10.90;;;12.40;79.60;;;;;;5031215;28;20021;-57
2022/11/11 07:51:06;;;;;;;20.38;12.98;;;12.40;79.60;;;;;;5032779;28;20025;-56
2022/11/11 07:53:32;;;;;;;17.65;12.10;;;12.30;79.70;;;;;;5028590;28;20025;-56
2022/11/11 07:55:58;;;;;;;16.95;11.00;;;12.30;79.90;;;;;;5033549;28;20098;-57
2022/11/11 07:58:23;;;;;;;14.63;10.63;;;12.20;80.10;;;;;;5035393;28;20037;-56
2022/11/11 08:00:49;;;;;;;14.93;10.05;;;12.20;80.30;;;;;;5035531;28;20030;-57
2022/11/11 08:03:15;;;;;;;15.00;9.48;;;12.10;80.50;;;;;;5034144;28;20036;-56
2022/11/11 08:05:40;;;;;;;14.02;10.10;;;12.10;80.80;;;;;;5030939;28;20025;-56
2022/11/11 08:08:07;;;;;;;14.15;9.88;;;12.10;80.90;;;;;;5037186;28;20064;-57
2022/11/11 08:10:33;;;;;;;12.65;9.00;;;12.00;81.20;;;;;;5015809;28;21699;-57
2022/11/11 08:15:44;;;;;;;10.70;7.07;;;12.00;81.40;;;;;;5028817;28;20033;-55
2022/11/11 08:18:10;;;;;;;11.23;9.20;;;12.00;81.60;;;;;;5025703;28;20021;-57
2022/11/11 08:20:35;;;;;;;11.95;8.88;;;12.10;81.70;;;;;;5021765;28;20120;-56
2022/11/11 08:23:03;;;;;;;10.75;8.00;;;12.10;81.70;;;;;;5018277;28;20021;-57
2022/11/11 08:25:32;;;;;;;11.65;7.70;;;12.10;81.80;;;;;;5017171;28;20033;-57
2022/11/11 08:28:03;;;;;;;15.00;9.77;;;12.10;81.70;;;;;;5018752;28;20059;-58
2022/11/11 08:30:29;;;;;;;11.45;7.80;;;12.20;81.90;;;;;;5023346;28;20030;-57
2022/11/11 08:33:03;;;;;;;11.98;8.10;;;12.20;81.90;;;;;;5015285;28;20037;-57
2022/11/11 08:35:29;;;;;;;14.43;9.85;;;12.20;81.90;;;;;;5009849;28;20563;-56
2022/11/11 08:37:59;;;;;;;10.63;7.55;;;12.20;82.10;;;;;;5009938;28;20056;-57
2022/11/11 08:40:25;;;;;;;14.55;9.65;;;12.20;82.20;;;;;;5008636;28;20053;-57
2022/11/11 08:42:54;;;;;;;13.00;8.73;;;12.20;82.30;;;;;;5017242;28;20153;-57
2022/11/11 08:45:20;;;;;;;11.45;9.15;;;12.20;82.40;;;;;;5012599;28;20029;-57
2022/11/11 08:47:45;;;;;;;11.98;8.38;;;12.20;82.50;;;;;;5015727;28;20876;-57
2022/11/11 08:50:11;;;;;;;13.25;9.35;;;12.20;82.50;;;;;;5017868;28;20504;-57
2022/11/11 08:52:38;;;;;;;12.43;8.70;;;12.20;82.70;;;;;;5004181;28;20121;-57
2022/11/11 08:55:04;;;;;;;11.65;8.65;;;12.20;82.80;;;;;;5016520;28;20025;-57
2022/11/11 08:57:29;;;;;;;13.10;8.95;;;12.20;82.90;;;;;;5016017;28;20039;-56
2022/11/11 08:59:55;;;;;;;12.52;9.02;;;12.20;83.00;;;;;;5019638;28;20037;-56
2022/11/11 09:02:20;;;;;;;11.52;8.10;;;12.20;83.10;;;;;;5013821;28;20033;-57
2022/11/11 09:04:46;;;;;;;12.68;8.93;;;12.20;83.20;;;;;;5012419;28;20079;-57
2022/11/11 09:07:12;;;;;;;11.65;8.13;;;12.30;83.30;;;;;;5021843;28;20037;-56
2022/11/11 09:09:37;;;;;;;10.35;7.85;;;12.30;83.40;;;;;;5017718;28;20057;-57
2022/11/11 09:12:03;;;;;;;11.82;8.65;;;12.30;83.40;;;;;;5015309;28;20025;-57
2022/11/11 09:14:29;;;;;;;11.90;9.20;;;12.40;83.50;;;;;;5017809;28;20033;-58
2022/11/11 09:16:54;;;;;;;13.38;9.45;;;12.40;83.50;;;;;;5007282;28;20037;-57
2022/11/11 09:19:20;;;;;;;11.57;8.48;;;12.40;83.30;;;;;;5010722;28;20039;-57
2022/11/11 09:21:46;;;;;;;12.32;8.18;;;12.40;83.20;;;;;;5012735;28;20037;-56
2022/11/11 09:24:12;;;;;;;11.00;8.82;;;12.50;83.30;;;;;;5019990;28;20040;-56
2022/11/11 09:26:37;;;;;;;11.07;7.88;;;12.40;83.40;;;;;;5016159;28;20568;-56
2022/11/11 09:29:03;;;;;;;11.60;8.40;;;12.50;83.50;;;;;;5019408;28;20037;-56
2022/11/11 09:31:29;;;;;;;11.30;7.78;;;12.50;83.50;;;;;;5007417;28;20064;-56
2022/11/11 09:33:54;;;;;;;9.30;7.32;;;12.50;83.60;;;;;;5019420;28;20124;-56
2022/11/11 09:36:20;;;;;;;9.82;6.85;;;12.50;83.60;;;;;;5007768;28;20072;-56
2022/11/11 09:38:46;;;;;;;10.88;7.53;;;12.60;83.70;;;;;;5014742;28;20032;-57
2022/11/11 09:41:20;;;;;;;11.35;7.43;;;12.60;83.60;;;;;;5018791;28;20045;-56
2022/11/11 09:43:56;;;;;;;10.43;7.00;;;12.60;83.60;;;;;;5015280;28;20033;-55
2022/11/11 09:47:06;;;;;;;10.18;7.75;;;12.70;83.50;;;;;;5007894;28;20117;-57
2022/11/11 09:49:41;;;;;;;7.53;5.80;;;12.70;83.50;;;;;;5005894;28;20044;-57
2022/11/11 09:52:22;;;;;;;9.60;7.03;;;12.70;83.70;;;;;;5009572;28;20038;-57
2022/11/11 09:55:11;;;;;;;8.38;6.68;;;12.70;83.40;;;;;;5013446;28;20037;-56
2022/11/11 09:57:52;;;;;;;10.15;7.15;;;12.70;83.60;;;;;;5005536;28;20067;-57
2022/11/11 10:00:24;;;;;;;12.10;7.20;;;12.80;83.50;;;;;;5003367;28;20961;-58
2022/11/11 12:06:20;;;;;;;6.75;4.95;;;11.90;81.50;;;;;;5063515;27;1563013;-57
2022/11/11 12:09:10;;;;;;;9.13;6.68;;;11.90;80.60;;;;;;5101659;27;20037;-55
2022/11/11 12:11:59;;;;;;;8.02;6.15;;;12.00;82.00;;;;;;5101150;28;20127;-57
2022/11/11 12:14:34;;;;;;;9.98;6.63;;;12.00;82.90;;;;;;5107236;28;20039;-57
2022/11/11 12:17:03;;;;;;;9.15;6.68;;;12.00;83.60;;;;;;5105619;28;20089;-57
2022/11/11 12:19:34;;;;;;;9.15;6.15;;;12.10;84.30;;;;;;5100901;28;20032;-58
2022/11/11 12:22:37;;;;;;;12.00;7.47;;;12.10;84.60;;;;;;5107790;28;20038;-57
2022/11/11 12:25:32;;;;;;;9.00;7.00;;;12.30;84.80;;;;;;5105025;28;20027;-57
2022/11/11 12:28:45;;;;;;;9.23;6.53;;;12.30;85.00;;;;;;5096472;28;20887;-59
2022/11/11 12:31:14;;;;;;;11.82;8.00;;;12.40;84.90;;;;;;5056770;28;20043;-58
2022/11/11 12:33:48;;;;;;;9.02;6.55;;;12.40;85.10;;;;;;5099648;28;20557;-58
2022/11/11 12:36:26;;;;;;;9.55;7.05;;;12.50;85.20;;;;;;5091369;28;20131;-57
2022/11/11 12:39:04;;;;;;;8.25;6.00;;;12.50;85.10;;;;;;5091646;28;20032;-56
2022/11/11 12:41:42;;;;;;;9.68;7.10;;;12.50;85.00;;;;;;5096512;27;20084;-57
2022/11/11 12:44:10;;;;;;;7.47;5.75;;;12.60;85.00;;;;;;5096232;28;20039;-56
2022/11/11 12:46:44;;;;;;;9.68;7.05;;;12.60;85.00;;;;;;5092406;28;20031;-57
2022/11/11 12:49:28;;;;;;;8.43;6.85;;;12.70;84.90;;;;;;5085245;28;20081;-57
2022/11/11 12:52:24;;;;;;;8.27;6.28;;;12.70;84.80;;;;;;5087830;28;20063;-55
2022/11/11 12:55:41;;;;;;;7.15;5.63;;;12.80;84.50;;;;;;5096448;28;20138;-57
2022/11/11 12:58:25;;;;;;;8.55;5.40;;;12.80;84.30;;;;;;5081632;27;20811;-57
2022/11/11 13:01:19;;;;;;;8.30;5.65;;;12.80;84.30;;;;;;5092155;28;20050;-57
2022/11/11 13:03:53;;;;;;;9.27;6.75;;;12.90;84.20;;;;;;5090011;28;20063;-57
2022/11/11 13:06:27;;;;;;;8.55;6.65;;;12.90;84.20;;;;;;5099198;28;20031;-58
2022/11/11 13:09:02;;;;;;;10.30;7.78;;;12.90;84.00;;;;;;5096653;28;20024;-55
2022/11/11 13:12:01;;;;;;;10.43;7.38;;;12.90;83.90;;;;;;5090726;28;20636;-56
2022/11/11 13:14:58;;;;;;;11.55;8.48;;;12.90;83.60;;;;;;5090439;28;20031;-56
2022/11/11 13:17:23;;;;;;;12.05;8.98;;;12.90;83.70;;;;;;5079672;28;20098;-56
2022/11/11 13:20:14;;;;;;;11.13;8.35;;;12.90;83.70;;;;;;5073443;28;20028;-57
2022/11/11 13:22:40;;;;;;;11.70;8.05;;;12.90;83.60;;;;;;5082419;28;20020;-57
2022/11/11 13:25:06;;;;;;;10.02;7.22;;;12.90;83.60;;;;;;5079234;28;20116;-56
2022/11/11 13:27:55;;;;;;;10.32;6.32;;;12.90;83.60;;;;;;5081137;28;20138;-57
2022/11/11 13:30:44;;;;;;;9.32;7.15;;;12.90;83.60;;;;;;5079184;28;20101;-57
2022/11/11 13:33:19;;;;;;;9.00;6.00;;;12.90;83.50;;;;;;5085985;28;20028;-55
2022/11/11 13:35:55;;;;;;;9.07;6.10;;;12.90;83.60;;;;;;5077797;28;20142;-57
2022/11/11 13:38:44;;;;;;;7.78;5.15;;;12.90;83.70;;;;;;5083226;28;20034;-57
2022/11/11 13:41:11;;;;;;;8.27;5.40;;;13.00;83.60;;;;;;5083258;28;20110;-57
2022/11/11 13:43:46;;;;;;;7.43;5.18;;;12.90;83.50;;;;;;5085080;28;20035;-58
2022/11/11 13:46:46;;;;;;;7.68;5.47;;;13.00;83.60;;;;;;5086817;28;20024;-55
2022/11/11 13:49:30;;;;;;;7.13;4.80;;;13.10;83.50;;;;;;5080077;28;20031;-57
2022/11/11 13:52:04;;;;;;;7.78;6.00;;;13.10;83.50;;;;;;5079789;28;20020;-57
2022/11/11 13:54:39;;;;;;;7.82;6.15;;;13.10;83.30;;;;;;5079433;27;20042;-55
2022/11/11 13:57:21;;;;;;;9.70;7.07;;;13.10;83.10;;;;;;5080816;28;20024;-56
2022/11/11 14:00:22;;;;;;;10.10;7.18;;;13.10;83.00;;;;;;5080484;28;20521;-57
2022/11/11 14:03:08;;;;;;;10.07;8.15;;;13.10;82.70;;;;;;5080685;28;20457;-57
2022/11/11 14:05:34;;;;;;;11.15;7.82;;;13.10;82.80;;;;;;5076003;28;20759;-57
2022/11/11 14:08:00;;;;;;;11.70;7.93;;;13.10;82.80;;;;;;5078962;28;20027;-57
2022/11/11 14:10:34;;;;;;;10.95;8.20;;;13.10;82.80;;;;;;5081550;28;20582;-57
2022/11/11 14:13:31;;;;;;;11.10;8.30;;;13.10;82.80;;;;;;5077453;28;20569;-57
2022/11/11 14:15:57;;;;;;;10.40;7.45;;;13.10;82.70;;;;;;5058084;28;21093;-56
2022/11/11 14:18:25;;;;;;;11.10;8.13;;;13.10;82.80;;;;;;5073749;28;20035;-58
2022/11/11 14:20:52;;;;;;;11.52;9.00;;;13.10;82.80;;;;;;5066809;28;20940;-57
2022/11/11 14:23:35;;;;;;;9.95;8.18;;;13.10;82.80;;;;;;5073345;28;20107;-56
2022/11/11 14:26:10;;;;;;;10.60;7.88;;;13.10;82.80;;;;;;5083598;28;20061;-57
2022/11/11 14:28:51;;;;;;;9.57;8.27;;;13.00;82.70;;;;;;5076060;28;20032;-57
2022/11/11 14:31:17;;;;;;;10.52;8.00;;;13.00;82.60;;;;;;5080389;28;20601;-57
2022/11/11 14:33:56;;;;;;;13.75;9.82;;;13.00;82.70;;;;;;5072832;28;20040;-57
2022/11/11 14:36:21;;;;;;;12.10;9.18;;;13.00;82.80;;;;;;5084000;28;20028;-57
2022/11/11 14:38:59;;;;;;;12.60;7.97;;;13.00;82.70;;;;;;5080834;28;20046;-57
2022/11/11 14:41:40;;;;;;;11.50;8.23;;;13.00;82.80;;;;;;5075424;28;20024;-57
2022/11/11 14:44:24;;;;;;;10.93;8.60;;;12.90;82.80;;;;;;5076710;28;20387;-58
2022/11/11 14:47:04;;;;;;;10.45;7.90;;;12.90;82.60;;;;;;5086485;28;20067;-56
2022/11/11 14:49:53;;;;;;;11.63;8.32;;;12.90;82.70;;;;;;5085764;28;20516;-58
2022/11/11 14:52:25;;;;;;;12.65;8.00;;;12.90;82.70;;;;;;5088800;28;21145;-58
2022/11/11 14:54:57;;;;;;;11.18;7.30;;;12.90;82.80;;;;;;5083704;28;20486;-58
2022/11/11 14:57:35;;;;;;;11.15;8.15;;;12.90;82.70;;;;;;5079649;28;20087;-55
2022/11/11 15:00:31;;;;;;;12.77;9.27;;;12.90;82.70;;;;;;5077375;28;20131;-57
2022/11/11 15:03:08;;;;;;;12.05;8.25;;;12.90;82.70;;;;;;5041651;28;20327;-57
2022/11/11 15:05:33;;;;;;;9.75;7.40;;;12.90;82.80;;;;;;5077610;28;21358;-57
2022/11/11 15:08:09;;;;;;;9.60;7.13;;;12.90;82.70;;;;;;5075293;28;20024;-57
2022/11/11 15:10:56;;;;;;;7.75;5.90;;;12.90;82.60;;;;;;5083598;28;20837;-58
2022/11/11 15:13:35;;;;;;;10.15;7.20;;;12.90;82.60;;;;;;5082017;28;20101;-57
2022/11/11 15:16:22;;;;;;;7.50;6.10;;;12.90;82.60;;;;;;5084812;28;20082;-58
2022/11/11 15:19:07;;;;;;;9.15;6.40;;;12.90;82.60;;;;;;5082828;28;20478;-57
2022/11/11 15:21:42;;;;;;;9.13;6.47;;;13.00;82.70;;;;;;5089670;28;20020;-58
2022/11/11 15:24:24;;;;;;;9.60;6.90;;;13.00;82.80;;;;;;5086152;28;20127;-57
2022/11/11 15:27:07;;;;;;;8.90;6.32;;;13.00;82.50;;;;;;5087448;28;20046;-57
2022/11/11 15:29:51;;;;;;;9.20;6.53;;;13.00;82.40;;;;;;5086989;28;20023;-56
2022/11/11 15:32:56;;;;;;;9.55;6.82;;;13.00;82.20;;;;;;5083476;28;20471;-57
2022/11/11 15:35:24;;;;;;;9.90;6.40;;;13.00;82.20;;;;;;5065624;28;20040;-57
2022/11/11 15:37:55;;;;;;;9.65;6.35;;;13.00;82.30;;;;;;5083300;28;20152;-57
2022/11/11 15:40:24;;;;;;;10.55;6.80;;;13.00;82.40;;;;;;5087353;28;20032;-57
2022/11/11 15:42:50;;;;;;;10.07;7.38;;;13.00;82.30;;;;;;5085708;28;20055;-57
2022/11/11 15:45:19;;;;;;;10.27;7.00;;;13.00;82.30;;;;;;5081880;28;20502;-58
2022/11/11 15:47:46;;;;;;;11.88;7.85;;;13.00;82.30;;;;;;5090495;28;20036;-57
2022/11/11 15:50:30;;;;;;;9.00;6.55;;;13.00;82.20;;;;;;5084850;28;20083;-57
2022/11/11 15:52:59;;;;;;;9.55;6.65;;;13.00;82.20;;;;;;5082370;28;20062;-58
2022/11/11 15:55:30;;;;;;;8.82;6.78;;;13.00;82.20;;;;;;5078197;28;20028;-56
2022/11/11 15:58:17;;;;;;;9.70;6.70;;;13.00;82.10;;;;;;5082651;28;20089;-57
2022/11/11 16:00:45;;;;;;;9.07;6.95;;;13.00;82.10;;;;;;5081961;28;20486;-58
2022/11/11 18:05:39;;;;;;;8.38;5.03;;;11.50;80.30;;;;;;5071371;27;20440;-57
2022/11/11 18:08:05;;;;;;;7.60;5.57;;;11.50;79.60;;;;;;5060722;28;20632;-57
2022/11/11 18:10:31;;;;;;;8.85;6.03;;;11.50;80.70;;;;;;5060827;28;20055;-57
2022/11/11 18:12:57;;;;;;;12.48;7.45;;;11.50;81.70;;;;;;5061372;28;20025;-57
2022/11/11 18:15:23;;;;;;;11.23;6.80;;;11.50;82.60;;;;;;5064257;28;20028;-58
2022/11/11 18:17:48;;;;;;;12.52;8.32;;;11.50;83.20;;;;;;5063337;28;20075;-60
2022/11/11 18:20:14;;;;;;;11.85;7.95;;;11.60;83.70;;;;;;5061947;28;20391;-57
2022/11/11 18:22:40;;;;;;;10.05;6.70;;;11.60;84.10;;;;;;5066824;28;20673;-57
2022/11/11 18:25:06;;;;;;;12.63;8.35;;;11.70;84.40;;;;;;5072275;28;20028;-56
2022/11/11 18:27:31;;;;;;;11.95;8.57;;;11.70;84.60;;;;;;5066301;28;20299;-57
2022/11/11 18:29:57;;;;;;;11.68;7.65;;;11.80;84.80;;;;;;5065835;28;20039;-57
2022/11/11 18:32:23;;;;;;;9.88;7.20;;;11.80;84.80;;;;;;5066452;28;20027;-57
2022/11/11 18:34:48;;;;;;;11.65;8.38;;;11.90;85.40;;;;;;5067409;28;20104;-58
2022/11/11 18:37:14;;;;;;;10.60;7.53;;;11.90;84.70;;;;;;5074700;28;20028;-57
2022/11/11 18:39:39;;;;;;;12.70;8.02;;;11.90;84.60;;;;;;5068606;28;20080;-56
2022/11/11 18:42:05;;;;;;;12.13;9.23;;;12.00;84.60;;;;;;5066936;28;20476;-57
2022/11/11 18:44:31;;;;;;;12.38;8.55;;;12.00;84.60;;;;;;5068489;28;20379;-57
2022/11/11 18:46:56;;;;;;;13.80;10.27;;;12.00;84.60;;;;;;5072463;28;20032;-57
2022/11/11 18:49:22;;;;;;;14.88;10.60;;;12.00;84.30;;;;;;5067942;28;20032;-58
2022/11/11 18:51:49;;;;;;;15.57;11.15;;;12.00;84.20;;;;;;5075911;28;20494;-56
2022/11/11 18:54:15;;;;;;;14.25;10.15;;;12.00;84.20;;;;;;5073260;28;20468;-56
2022/11/11 18:56:41;;;;;;;12.68;9.38;;;12.10;84.20;;;;;;5085501;28;20032;-58
2022/11/11 18:59:07;;;;;;;14.25;8.98;;;12.10;84.10;;;;;;5068112;28;20024;-56
2022/11/11 19:01:37;;;;;;;12.73;9.23;;;12.00;84.20;;;;;;5071806;28;20811;-56
2022/11/11 19:04:06;;;;;;;13.90;10.02;;;12.00;84.00;;;;;;5068553;28;20028;-56
2022/11/11 19:06:34;;;;;;;13.15;8.77;;;12.00;84.00;;;;;;5069385;28;20036;-57
2022/11/11 19:09:06;;;;;;;11.45;7.95;;;12.00;84.00;;;;;;5070471;28;20028;-57
2022/11/11 19:11:35;;;;;;;11.00;7.70;;;12.00;84.10;;;;;;5068342;28;20495;-56